Time;durP1;ratioP1;P1;durP2;ratioP2;P2;SDS_P1;SDS_P2;PMS_P1;PMS_P2;Temp;Humidity;BMP_temperature;BMP_pressure;BME280_temperature;BME280_humidity;BME280_pressure;Samples;Min_cycle;Max_cycle;Signal;HPM_P1;HPM_P2
2022/05/02 00:00:54;;;;;;;6.05;3.65;;;;;;;;;;4218092;34;20183;-65
2022/05/02 00:31:48;;;;;;;9.02;5.68;;;;;;;;;;4847485;28;20419;-68
2022/05/02 00:34:14;;;;;;;9.52;4.80;;;;;;;;;;4232969;33;20112;-69
2022/05/02 00:36:40;;;;;;;7.10;4.47;;;;;;;;;;4233941;33;20571;-65
2022/05/02 00:39:06;;;;;;;8.73;4.32;;;;;;;;;;4233725;33;20116;-65
2022/05/02 00:41:33;;;;;;;8.90;3.92;;;;;;;;;;4233683;33;20128;-68
2022/05/02 00:43:59;;;;;;;3.67;3.22;;;;;;;;;;4233744;33;20093;-65
2022/05/02 00:46:26;;;;;;;16.48;5.37;;;;;;;;;;4233767;33;20108;-69
2022/05/02 00:48:53;;;;;;;9.68;4.75;;;;;;;;;;4233789;33;20106;-69
2022/05/02 00:51:20;;;;;;;8.13;4.90;;;;;;;;;;4244090;33;20125;-70
2022/05/02 00:53:48;;;;;;;9.07;3.95;;;;;;;;;;4233662;33;20128;-69
2022/05/02 00:56:16;;;;;;;9.00;4.30;;;;;;;;;;4233676;33;20196;-70
2022/05/02 00:58:42;;;;;;;9.95;3.97;;;;;;;;;;4233632;33;20120;-69
2022/05/02 01:01:08;;;;;;;6.72;3.45;;;;;;;;;;4233369;33;20144;-67
2022/05/02 01:03:34;;;;;;;6.30;2.85;;;;;;;;;;4233435;33;20106;-68
2022/05/02 01:08:46;;;;;;;8.98;2.58;;;;;;;;;;4242348;33;20125;-68
2022/05/02 01:11:12;;;;;;;9.38;3.40;;;;;;;;;;4220800;33;20109;-68
2022/05/02 01:13:43;;;;;;;5.70;3.03;;;;;;;;;;4233509;33;20216;-68
2022/05/02 01:16:21;;;;;;;3.72;2.78;;;;;;;;;;4233585;33;20113;-67
2022/05/02 01:18:49;;;;;;;6.50;3.05;;;;;;;;;;4219627;33;20089;-67
2022/05/02 01:21:26;;;;;;;5.50;3.08;;;;;;;;;;4233444;33;20552;-69
2022/05/02 01:23:59;;;;;;;11.80;3.40;;;;;;;;;;4233307;33;20212;-69
2022/05/02 01:26:25;;;;;;;5.97;2.92;;;;;;;;;;4220423;33;20109;-70
2022/05/02 01:28:55;;;;;;;6.57;2.75;;;;;;;;;;4233706;33;20089;-70
2022/05/02 01:31:21;;;;;;;7.03;3.05;;;;;;;;;;4220484;33;20461;-70
2022/05/02 01:33:48;;;;;;;5.05;3.00;;;;;;;;;;4243627;33;20109;-70
2022/05/02 01:36:15;;;;;;;12.00;3.10;;;;;;;;;;4233374;33;20460;-69
2022/05/02 01:38:42;;;;;;;7.03;3.33;;;;;;;;;;4233265;33;20196;-70
2022/05/02 01:41:08;;;;;;;7.47;2.70;;;;;;;;;;4233256;33;20586;-70
2022/05/02 01:43:35;;;;;;;5.75;3.17;;;;;;;;;;4220345;33;20493;-70
2022/05/02 01:46:03;;;;;;;10.88;3.30;;;;;;;;;;4233246;33;20116;-70
2022/05/02 01:48:29;;;;;;;7.57;3.40;;;;;;;;;;4233186;33;20105;-70
2022/05/02 01:50:57;;;;;;;6.12;2.80;;;;;;;;;;4233284;33;20101;-70
2022/05/02 01:53:23;;;;;;;4.20;2.20;;;;;;;;;;4243552;33;20125;-70
2022/05/02 01:55:49;;;;;;;4.80;2.40;;;;;;;;;;4233190;33;20532;-70
2022/05/02 01:58:15;;;;;;;3.53;2.30;;;;;;;;;;4233054;33;20119;-69
2022/05/02 02:00:41;;;;;;;5.78;2.22;;;;;;;;;;4233383;33;20104;-70
2022/05/02 02:03:07;;;;;;;4.80;2.70;;;;;;;;;;4232981;33;20121;-70
2022/05/02 02:05:48;;;;;;;5.15;2.47;;;;;;;;;;4233175;33;20516;-70
2022/05/02 02:08:19;;;;;;;5.45;2.22;;;;;;;;;;4233295;33;20508;-70
2022/05/02 02:10:45;;;;;;;5.03;2.12;;;;;;;;;;4233088;33;20101;-70
2022/05/02 02:13:12;;;;;;;3.10;2.40;;;;;;;;;;4233215;33;20100;-70
2022/05/02 02:15:38;;;;;;;3.95;2.42;;;;;;;;;;4220138;33;20188;-70
2022/05/02 02:18:05;;;;;;;3.58;2.22;;;;;;;;;;4219894;33;20123;-70
2022/05/02 02:20:32;;;;;;;4.00;2.17;;;;;;;;;;4233248;33;20124;-70
2022/05/02 02:22:58;;;;;;;4.05;2.58;;;;;;;;;;4231759;33;20105;-68
2022/05/02 02:25:24;;;;;;;5.47;2.25;;;;;;;;;;4232890;33;20098;-67
2022/05/02 02:27:50;;;;;;;3.37;2.40;;;;;;;;;;4243162;33;20104;-67
2022/05/02 02:30:18;;;;;;;4.55;2.00;;;;;;;;;;4219775;33;20217;-70
2022/05/02 02:32:44;;;;;;;3.70;2.20;;;;;;;;;;4232944;33;20568;-71
2022/05/02 02:35:10;;;;;;;4.60;2.42;;;;;;;;;;4232749;33;20109;-68
2022/05/02 02:37:36;;;;;;;3.47;2.20;;;;;;;;;;4232900;33;20117;-68
2022/05/02 02:40:02;;;;;;;2.55;2.30;;;;;;;;;;4232768;33;20203;-68
2022/05/02 02:42:28;;;;;;;2.85;2.25;;;;;;;;;;4232686;33;20121;-67
2022/05/02 02:44:54;;;;;;;2.50;2.10;;;;;;;;;;4233006;33;20125;-68
2022/05/02 02:47:20;;;;;;;5.47;2.95;;;;;;;;;;4232718;33;20128;-68
2022/05/02 02:49:46;;;;;;;9.18;2.50;;;;;;;;;;4232927;33;20093;-68
2022/05/02 02:52:12;;;;;;;3.37;2.17;;;;;;;;;;4232768;33;20117;-68
2022/05/02 02:54:38;;;;;;;3.87;2.33;;;;;;;;;;4232700;33;20196;-68
2022/05/02 02:57:04;;;;;;;4.78;1.90;;;;;;;;;;4232516;33;20097;-68
2022/05/02 02:59:30;;;;;;;3.20;2.17;;;;;;;;;;4232856;33;20093;-68
2022/05/02 03:01:57;;;;;;;6.70;2.00;;;;;;;;;;4232528;33;20128;-68
2022/05/02 03:07:09;;;;;;;4.55;2.10;;;;;;;;;;4232601;33;20540;-69
2022/05/02 03:09:35;;;;;;;3.37;1.80;;;;;;;;;;4232553;33;20614;-69
2022/05/02 03:12:01;;;;;;;2.05;1.85;;;;;;;;;;4219908;33;20098;-70
2022/05/02 03:14:27;;;;;;;2.80;2.20;;;;;;;;;;4231132;33;20112;-71
2022/05/02 03:16:53;;;;;;;5.12;2.47;;;;;;;;;;4243770;33;20108;-71
2022/05/02 03:19:19;;;;;;;3.90;2.05;;;;;;;;;;4232423;33;20450;-70
2022/05/02 03:21:45;;;;;;;2.90;2.00;;;;;;;;;;4232254;33;20519;-70
2022/05/02 03:24:11;;;;;;;3.22;2.00;;;;;;;;;;4242583;33;20131;-69
2022/05/02 03:26:37;;;;;;;2.67;2.00;;;;;;;;;;4207761;33;20140;-70
2022/05/02 03:29:03;;;;;;;3.42;1.80;;;;;;;;;;4232354;33;20113;-68
2022/05/02 03:31:29;;;;;;;3.92;2.20;;;;;;;;;;4232216;33;20126;-71
2022/05/02 03:33:55;;;;;;;2.87;1.80;;;;;;;;;;4242593;33;20220;-71
2022/05/02 03:36:21;;;;;;;9.40;2.20;;;;;;;;;;4219193;33;20127;-71
2022/05/02 03:38:47;;;;;;;2.25;2.03;;;;;;;;;;4232294;33;20101;-71
2022/05/02 03:41:13;;;;;;;2.55;1.50;;;;;;;;;;4232067;33;20540;-71
2022/05/02 03:43:39;;;;;;;3.55;2.47;;;;;;;;;;4231717;33;20114;-71
2022/05/02 03:46:05;;;;;;;2.45;1.80;;;;;;;;;;4232112;33;20113;-71
2022/05/02 03:48:31;;;;;;;2.05;1.85;;;;;;;;;;4232098;33;20551;-69
2022/05/02 03:50:57;;;;;;;3.90;1.90;;;;;;;;;;4232120;33;20107;-70
2022/05/02 03:53:23;;;;;;;3.92;2.10;;;;;;;;;;4232062;33;20521;-71
2022/05/02 03:55:50;;;;;;;4.30;2.00;;;;;;;;;;4232046;33;20128;-71
2022/05/02 03:58:16;;;;;;;3.50;1.85;;;;;;;;;;4232237;33;20093;-71
2022/05/02 04:00:42;;;;;;;6.97;2.40;;;;;;;;;;4232176;33;20124;-71
2022/05/02 04:03:08;;;;;;;4.30;1.70;;;;;;;;;;4242135;33;20110;-70
2022/05/02 04:05:34;;;;;;;2.22;1.87;;;;;;;;;;4231816;33;20120;-70
2022/05/02 04:08:00;;;;;;;7.68;2.20;;;;;;;;;;4231926;33;20531;-70
2022/05/02 04:10:26;;;;;;;4.70;2.08;;;;;;;;;;4231837;33;20117;-71
2022/05/02 04:12:52;;;;;;;4.65;2.65;;;;;;;;;;4231842;33;20113;-70
2022/05/02 04:15:18;;;;;;;3.65;1.60;;;;;;;;;;4232147;33;20109;-70
2022/05/02 04:17:44;;;;;;;4.50;1.90;;;;;;;;;;4231976;33;20136;-69
2022/05/02 04:20:10;;;;;;;2.85;1.92;;;;;;;;;;4231889;33;20395;-70
2022/05/02 04:22:38;;;;;;;4.30;1.95;;;;;;;;;;4241861;33;20556;-70
2022/05/02 04:25:04;;;;;;;1.98;1.77;;;;;;;;;;4231823;33;20188;-70
2022/05/02 04:27:31;;;;;;;3.80;2.12;;;;;;;;;;4219066;33;20113;-70
2022/05/02 04:29:57;;;;;;;5.70;2.08;;;;;;;;;;4242043;33;20101;-69
2022/05/02 04:32:23;;;;;;;4.53;2.10;;;;;;;;;;4231508;33;20127;-70
2022/05/02 04:34:49;;;;;;;2.35;1.90;;;;;;;;;;4242039;33;20116;-70
2022/05/02 04:37:15;;;;;;;2.42;1.70;;;;;;;;;;4231680;33;20141;-68
2022/05/02 04:39:41;;;;;;;6.95;2.97;;;;;;;;;;4231638;33;20278;-68
2022/05/02 04:42:07;;;;;;;2.75;1.60;;;;;;;;;;4231418;33;20165;-69
2022/05/02 04:44:34;;;;;;;4.22;1.90;;;;;;;;;;4231523;33;20540;-68
2022/05/02 04:47:00;;;;;;;7.68;1.90;;;;;;;;;;4241659;33;20152;-68
2022/05/02 04:49:26;;;;;;;2.60;1.73;;;;;;;;;;4231402;33;20105;-67
2022/05/02 04:51:52;;;;;;;4.35;2.08;;;;;;;;;;4231537;33;20131;-68
2022/05/02 04:54:19;;;;;;;1.95;1.80;;;;;;;;;;4233293;33;20528;-67
2022/05/02 04:56:45;;;;;;;1.70;1.60;;;;;;;;;;4233709;33;20128;-67
2022/05/02 04:59:11;;;;;;;1.62;1.52;;;;;;;;;;4233615;33;20208;-67
2022/05/02 05:01:37;;;;;;;3.17;1.60;;;;;;;;;;4233820;33;20599;-67
2022/05/02 05:04:03;;;;;;;1.90;1.73;;;;;;;;;;4233594;33;20093;-67
2022/05/02 05:06:29;;;;;;;7.80;1.90;;;;;;;;;;4233541;33;20094;-69
2022/05/02 05:08:55;;;;;;;2.62;1.90;;;;;;;;;;4233584;33;20153;-69
2022/05/02 05:11:48;;;;;;;3.20;1.70;;;;;;;;;;4243726;33;20101;-70
2022/05/02 05:17:41;;;;;;;3.35;1.77;;;;;;;;;;4233570;33;20540;-71
2022/05/02 05:20:17;;;;;;;3.05;1.85;;;;;;;;;;4232202;33;20712;-71
2022/05/02 05:23:07;;;;;;;4.85;2.12;;;;;;;;;;4233233;33;20113;-71
2022/05/02 05:25:59;;;;;;;3.20;1.67;;;;;;;;;;4233375;33;20208;-71
2022/05/02 05:28:56;;;;;;;5.72;1.85;;;;;;;;;;4233406;33;20098;-71
2022/05/02 05:31:22;;;;;;;2.65;1.85;;;;;;;;;;4233339;33;20117;-71
2022/05/02 05:34:07;;;;;;;5.57;1.60;;;;;;;;;;4233404;33;20658;-71
2022/05/02 05:36:48;;;;;;;1.60;1.50;;;;;;;;;;4233239;33;20105;-70
2022/05/02 05:39:56;;;;;;;1.83;1.50;;;;;;;;;;4243576;33;20093;-70
2022/05/02 05:42:49;;;;;;;7.20;1.90;;;;;;;;;;4199883;33;20521;-67
2022/05/02 05:45:40;;;;;;;2.03;1.83;;;;;;;;;;4233523;33;20117;-69
2022/05/02 05:48:13;;;;;;;5.00;1.62;;;;;;;;;;4212927;33;20201;-69
2022/05/02 05:50:49;;;;;;;3.83;1.90;;;;;;;;;;4233189;33;20105;-69
2022/05/02 05:53:27;;;;;;;;;;;;;;;;;;4243767;33;20199;-69
2022/05/02 05:55:52;;;;;;;4.00;1.80;;;;;;;;;;4233288;33;19981;-68
2022/05/02 05:58:45;;;;;;;3.55;1.73;;;;;;;;;;4233085;33;20121;-75
2022/05/02 06:01:15;;;;;;;4.75;2.00;;;;;;;;;;4233086;33;20458;-68
2022/05/02 06:03:55;;;;;;;3.22;2.15;;;;;;;;;;4220133;33;20218;-67
2022/05/02 06:06:22;;;;;;;12.75;2.42;;;;;;;;;;4232461;33;20090;-67
2022/05/02 06:08:50;;;;;;;2.55;1.70;;;;;;;;;;4243507;33;20113;-69
2022/05/02 06:11:17;;;;;;;3.35;1.70;;;;;;;;;;4208170;33;20105;-71
2022/05/02 06:13:44;;;;;;;1.70;1.60;;;;;;;;;;4243536;33;20516;-70
2022/05/02 06:18:58;;;;;;;2.80;1.90;;;;;;;;;;4242005;33;20123;-71
2022/05/02 06:21:24;;;;;;;2.60;1.60;;;;;;;;;;4243115;33;20134;-70
2022/05/02 06:23:51;;;;;;;1.85;1.70;;;;;;;;;;4243504;33;20085;-72
2022/05/02 06:26:18;;;;;;;3.30;1.80;;;;;;;;;;4230745;33;20124;-71
2022/05/02 06:28:45;;;;;;;3.90;1.90;;;;;;;;;;4219618;33;20529;-71
2022/05/02 06:31:29;;;;;;;2.30;1.70;;;;;;;;;;4229703;33;20527;-71
2022/05/02 06:33:57;;;;;;;3.47;1.90;;;;;;;;;;4233952;33;20105;-71
2022/05/02 06:36:25;;;;;;;3.05;1.83;;;;;;;;;;4233373;33;20124;-74
2022/05/02 06:39:04;;;;;;;7.55;2.08;;;;;;;;;;4247029;33;20128;-75
2022/05/02 06:41:49;;;;;;;8.27;1.98;;;;;;;;;;4234706;33;20237;-78
2022/05/02 06:44:43;;;;;;;2.00;1.77;;;;;;;;;;4233650;33;20116;-81
2022/05/02 06:48:03;;;;;;;2.42;1.80;;;;;;;;;;4234023;33;20108;-74
2022/05/02 06:50:32;;;;;;;2.50;1.90;;;;;;;;;;4174678;34;20121;-73
2022/05/02 06:53:03;;;;;;;4.15;2.33;;;;;;;;;;4242736;33;20109;-67
2022/05/02 06:55:42;;;;;;;4.32;2.12;;;;;;;;;;4246870;33;20128;-68
2022/05/02 06:58:25;;;;;;;3.40;2.17;;;;;;;;;;4233588;33;20109;-72
2022/05/02 07:01:23;;;;;;;6.80;2.17;;;;;;;;;;4233785;33;20216;-69
2022/05/02 07:03:49;;;;;;;1.02;1.02;;;;;;;;;;4246861;33;20116;-70
2022/05/02 07:06:47;;;;;;;2.50;1.90;;;;;;;;;;4233792;33;20277;-74
2022/05/02 07:09:19;;;;;;;1.10;1.10;;;;;;;;;;4206616;33;20110;-69
2022/05/02 07:12:14;;;;;;;3.20;1.50;;;;;;;;;;4206483;33;20580;-69
2022/05/02 07:15:03;;;;;;;1.75;1.65;;;;;;;;;;4219285;33;20457;-69
2022/05/02 07:17:50;;;;;;;2.10;1.80;;;;;;;;;;4231233;33;20116;-71
2022/05/02 07:20:19;;;;;;;2.67;1.85;;;;;;;;;;4232026;33;20141;-71
2022/05/02 07:23:17;;;;;;;2.22;1.52;;;;;;;;;;4217868;33;20105;-74
2022/05/02 07:25:44;;;;;;;4.50;2.08;;;;;;;;;;4196112;33;20131;-71
2022/05/02 07:28:30;;;;;;;5.53;1.98;;;;;;;;;;4218928;33;20117;-72
2022/05/02 07:30:57;;;;;;;3.62;2.10;;;;;;;;;;4218260;33;20203;-71
2022/05/02 07:33:31;;;;;;;2.25;1.80;;;;;;;;;;4218932;33;20132;-73
2022/05/02 07:36:02;;;;;;;1.87;1.70;;;;;;;;;;4207524;33;20109;-72
2022/05/02 07:38:34;;;;;;;1.90;1.73;;;;;;;;;;4206802;33;20100;-72
2022/05/02 07:41:22;;;;;;;1.70;1.60;;;;;;;;;;4218901;33;20460;-72
2022/05/02 07:44:01;;;;;;;3.22;2.00;;;;;;;;;;4219644;33;20094;-72
2022/05/02 07:46:38;;;;;;;3.22;1.50;;;;;;;;;;4205339;33;20122;-74
2022/05/02 07:49:07;;;;;;;4.80;1.95;;;;;;;;;;4219448;33;20164;-73
2022/05/02 07:51:38;;;;;;;2.47;1.90;;;;;;;;;;4236687;33;20158;-70
2022/05/02 07:54:06;;;;;;;3.25;1.80;;;;;;;;;;4220821;33;20587;-76
2022/05/02 07:56:35;;;;;;;3.33;1.62;;;;;;;;;;4207271;33;20571;-73
2022/05/02 07:59:02;;;;;;;1.75;1.55;;;;;;;;;;4232102;33;20215;-73
2022/05/02 08:01:28;;;;;;;2.60;1.83;;;;;;;;;;4231868;33;20127;-72
2022/05/02 08:03:54;;;;;;;2.95;1.60;;;;;;;;;;4231891;33;20105;-73
2022/05/02 08:06:32;;;;;;;2.15;1.73;;;;;;;;;;4231876;33;20097;-72
2022/05/02 08:09:13;;;;;;;4.12;2.42;;;;;;;;;;4232153;33;20089;-71
2022/05/02 08:12:00;;;;;;;1.95;1.40;;;;;;;;;;4233907;33;20108;-69
2022/05/02 08:15:06;;;;;;;2.65;2.03;;;;;;;;;;4210350;33;20104;-69
2022/05/02 08:17:35;;;;;;;2.40;1.45;;;;;;;;;;4229904;33;20216;-74
2022/05/02 08:20:16;;;;;;;2.15;1.90;;;;;;;;;;4240778;33;20128;-72
2022/05/02 08:29:13;;;;;;;;;;;;;;;;;;4233368;33;20089;-75
2022/05/02 08:31:56;;;;;;;2.50;1.83;;;;;;;;;;4221089;33;20080;-75
2022/05/02 08:34:41;;;;;;;2.15;1.40;;;;;;;;;;4220911;33;20188;-70
2022/05/02 08:37:31;;;;;;;3.80;1.98;;;;;;;;;;4231728;33;20093;-75
2022/05/02 08:40:08;;;;;;;2.28;1.80;;;;;;;;;;4229335;33;20529;-77
2022/05/02 08:42:53;;;;;;;3.22;1.92;;;;;;;;;;4219715;33;20185;-77
2022/05/02 08:46:03;;;;;;;8.05;1.98;;;;;;;;;;4219883;33;20109;-79
2022/05/02 08:48:48;;;;;;;2.55;1.73;;;;;;;;;;4214542;33;20508;-78
2022/05/02 08:51:38;;;;;;;1.83;1.65;;;;;;;;;;4234137;33;20120;-75
2022/05/02 08:54:28;;;;;;;2.65;1.80;;;;;;;;;;4220419;33;20129;-77
2022/05/02 08:57:21;;;;;;;2.55;1.50;;;;;;;;;;4247000;33;20524;-74
2022/05/02 08:59:56;;;;;;;5.53;2.10;;;;;;;;;;4233148;33;20125;-73
2022/05/02 09:02:34;;;;;;;1.95;1.45;;;;;;;;;;4232215;33;20103;-71
2022/05/02 09:05:28;;;;;;;2.12;1.52;;;;;;;;;;4233161;33;20101;-70
2022/05/02 09:08:08;;;;;;;1.73;1.62;;;;;;;;;;4220030;33;20263;-73
2022/05/02 09:11:31;;;;;;;2.58;1.52;;;;;;;;;;4231495;33;20117;-78
2022/05/02 09:14:18;;;;;;;4.70;1.60;;;;;;;;;;4232420;33;20109;-77
2022/05/02 09:17:21;;;;;;;2.20;1.50;;;;;;;;;;4232366;33;20131;-77
2022/05/02 09:20:24;;;;;;;2.20;1.70;;;;;;;;;;4232809;33;20129;-76
2022/05/02 09:23:27;;;;;;;1.73;1.55;;;;;;;;;;4235940;33;20530;-76
2022/05/02 09:26:16;;;;;;;3.08;1.17;;;;;;;;;;4233286;33;20247;-79
2022/05/02 09:29:40;;;;;;;2.92;1.60;;;;;;;;;;4212824;33;20101;-81
2022/05/02 09:32:35;;;;;;;1.60;1.50;;;;;;;;;;4168357;34;20732;-78
2022/05/02 09:35:04;;;;;;;1.65;1.40;;;;;;;;;;4205785;33;20142;-81
2022/05/02 09:37:38;;;;;;;3.80;1.50;;;;;;;;;;4219880;33;20101;-76
2022/05/02 09:40:15;;;;;;;4.78;1.20;;;;;;;;;;4230314;33;20121;-77
2022/05/02 09:43:06;;;;;;;2.47;1.48;;;;;;;;;;4231651;33;20141;-74
2022/05/02 09:52:02;;;;;;;2.05;1.67;;;;;;;;;;4230284;33;20129;-76
2022/05/02 09:58:00;;;;;;;1.60;1.50;;;;;;;;;;4232394;33;20108;-70
2022/05/02 10:03:25;;;;;;;1.52;1.42;;;;;;;;;;4220719;33;20169;-68
2022/05/02 10:06:05;;;;;;;8.05;2.10;;;;;;;;;;4220081;33;20216;-67
2022/05/02 10:08:39;;;;;;;5.25;1.75;;;;;;;;;;4230387;33;20131;-68
2022/05/02 10:11:09;;;;;;;2.83;1.52;;;;;;;;;;4230341;33;20499;-70
2022/05/02 10:14:23;;;;;;;2.53;1.77;;;;;;;;;;4252087;33;20481;-67
2022/05/02 10:17:04;;;;;;;7.25;1.87;;;;;;;;;;4218217;33;20108;-67
2022/05/02 10:19:40;;;;;;;3.05;2.00;;;;;;;;;;4217475;33;20811;-68
2022/05/02 10:22:23;;;;;;;0.90;0.90;;;;;;;;;;4233366;33;20535;-67
2022/05/02 10:25:08;;;;;;;1.65;1.50;;;;;;;;;;4227670;33;21162;-68
2022/05/02 10:28:03;;;;;;;2.67;1.77;;;;;;;;;;4219153;33;20132;-67
2022/05/02 10:30:47;;;;;;;2.05;1.65;;;;;;;;;;4243399;33;20124;-73
2022/05/02 10:33:15;;;;;;;3.05;1.87;;;;;;;;;;4232638;33;20097;-72
2022/05/02 10:35:46;;;;;;;2.58;1.87;;;;;;;;;;4220046;33;20109;-70
2022/05/02 10:38:18;;;;;;;2.47;1.85;;;;;;;;;;4232649;33;20185;-67
2022/05/02 10:40:45;;;;;;;2.75;1.90;;;;;;;;;;4232857;33;20113;-70
2022/05/02 10:43:25;;;;;;;1.83;1.65;;;;;;;;;;4232581;33;20536;-73
2022/05/02 10:45:52;;;;;;;4.93;1.60;;;;;;;;;;4229064;33;20104;-74
2022/05/02 10:48:22;;;;;;;2.50;1.90;;;;;;;;;;4223138;33;20116;-72
2022/05/02 10:51:24;;;;;;;1.77;1.67;;;;;;;;;;4222998;33;20121;-71
2022/05/02 10:54:13;;;;;;;1.40;1.30;;;;;;;;;;4204978;33;20128;-67
2022/05/02 10:56:44;;;;;;;4.55;1.70;;;;;;;;;;4213667;33;20132;-67
2022/05/02 10:59:12;;;;;;;4.57;2.90;;;;;;;;;;4222241;33;20105;-67
2022/05/02 11:02:06;;;;;;;4.43;1.92;;;;;;;;;;4233224;33;20117;-67
2022/05/02 11:04:35;;;;;;;7.28;2.30;;;;;;;;;;4218437;34;20549;-67
2022/05/02 11:07:22;;;;;;;1.85;1.73;;;;;;;;;;4218693;34;20215;-67
2022/05/02 11:10:09;;;;;;;4.03;1.95;;;;;;;;;;4236259;33;20527;-69
2022/05/02 11:12:59;;;;;;;4.47;1.90;;;;;;;;;;4222141;33;20136;-70
2022/05/02 11:15:32;;;;;;;2.75;1.75;;;;;;;;;;4218184;33;20104;-68
2022/05/02 11:21:29;;;;;;;3.80;1.85;;;;;;;;;;4227306;33;20112;-76
2022/05/02 11:24:43;;;;;;;5.07;1.55;;;;;;;;;;4209345;34;20101;-71
2022/05/02 11:27:24;;;;;;;1.85;1.60;;;;;;;;;;4218494;33;20611;-78
2022/05/02 11:30:14;;;;;;;1.92;1.70;;;;;;;;;;4219360;33;20113;-77
2022/05/02 11:32:51;;;;;;;3.05;1.75;;;;;;;;;;4221912;33;20207;-74
2022/05/02 11:35:29;;;;;;;6.82;2.12;;;;;;;;;;4232381;33;20116;-74
2022/05/02 11:38:19;;;;;;;2.85;1.90;;;;;;;;;;4232300;33;20644;-72
2022/05/02 11:40:51;;;;;;;3.53;1.90;;;;;;;;;;4219541;33;20540;-72
2022/05/02 11:43:23;;;;;;;2.00;1.65;;;;;;;;;;4232329;33;20108;-71
2022/05/02 11:46:10;;;;;;;2.05;1.80;;;;;;;;;;4232192;33;20127;-72
2022/05/02 11:48:53;;;;;;;2.03;1.70;;;;;;;;;;4232561;33;20132;-75
2022/05/02 11:51:37;;;;;;;1.40;1.30;;;;;;;;;;4242159;33;20160;-72
2022/05/02 11:54:10;;;;;;;1.30;1.05;;;;;;;;;;4223888;33;20193;-65
2022/05/02 11:56:55;;;;;;;2.85;1.58;;;;;;;;;;4242689;33;20117;-72
2022/05/02 11:59:23;;;;;;;1.00;1.00;;;;;;;;;;4228020;33;20136;-70
2022/05/02 12:02:02;;;;;;;4.45;2.15;;;;;;;;;;4240002;33;20196;-72
2022/05/02 12:04:31;;;;;;;1.42;1.33;;;;;;;;;;4229274;33;20181;-72
2022/05/02 12:07:02;;;;;;;1.48;1.37;;;;;;;;;;4230001;33;20105;-72
2022/05/02 12:09:32;;;;;;;2.03;1.77;;;;;;;;;;4230113;33;20107;-72
2022/05/02 12:12:04;;;;;;;4.20;1.60;;;;;;;;;;4239715;33;20112;-72
2022/05/02 12:14:31;;;;;;;2.65;1.75;;;;;;;;;;4240450;33;20101;-72
2022/05/02 12:17:09;;;;;;;0.93;0.93;;;;;;;;;;4231926;33;20117;-72
2022/05/02 12:19:37;;;;;;;1.08;1.00;;;;;;;;;;4230494;33;20189;-72
2022/05/02 12:22:05;;;;;;;0.93;0.93;;;;;;;;;;4242329;33;20112;-72
2022/05/02 12:24:33;;;;;;;3.22;1.25;;;;;;;;;;4242270;33;20150;-72
2022/05/02 12:27:00;;;;;;;2.85;1.40;;;;;;;;;;4230593;33;20116;-72
2022/05/02 12:29:27;;;;;;;1.23;1.12;;;;;;;;;;4241939;33;20105;-73
2022/05/02 12:31:56;;;;;;;1.00;1.00;;;;;;;;;;4230107;33;20100;-72
2022/05/02 12:34:24;;;;;;;6.65;1.73;;;;;;;;;;4230210;33;20476;-72
2022/05/02 12:36:52;;;;;;;1.60;1.50;;;;;;;;;;4230868;33;20526;-74
2022/05/02 12:39:26;;;;;;;1.40;1.30;;;;;;;;;;4231634;33;20196;-72
2022/05/02 12:42:16;;;;;;;4.60;2.25;;;;;;;;;;4232145;33;20505;-73
2022/05/02 12:45:11;;;;;;;4.78;2.65;;;;;;;;;;4241679;33;20303;-73
2022/05/02 12:47:56;;;;;;;1.57;1.47;;;;;;;;;;4231688;33;20132;-73
2022/05/02 12:50:27;;;;;;;4.72;1.83;;;;;;;;;;4231497;33;20192;-71
2022/05/02 12:53:05;;;;;;;4.35;2.03;;;;;;;;;;4231375;33;20145;-72
2022/05/02 12:55:38;;;;;;;3.85;2.03;;;;;;;;;;4231450;33;20120;-71
2022/05/02 13:00:52;;;;;;;1.48;1.37;;;;;;;;;;4229733;33;20101;-71
2022/05/02 13:03:27;;;;;;;3.58;2.35;;;;;;;;;;4225944;33;20105;-66
2022/05/02 13:05:54;;;;;;;4.47;2.78;;;;;;;;;;4222653;33;20590;-65
2022/05/02 13:08:31;;;;;;;6.00;2.12;;;;;;;;;;4223067;33;20090;-70
2022/05/02 13:11:16;;;;;;;4.15;2.67;;;;;;;;;;4231576;33;20127;-66
2022/05/02 13:13:52;;;;;;;3.45;2.10;;;;;;;;;;4231470;33;20139;-72
2022/05/02 13:16:43;;;;;;;3.85;2.03;;;;;;;;;;4219460;34;20109;-71
2022/05/02 13:19:09;;;;;;;7.37;3.00;;;;;;;;;;4229644;33;20105;-70
2022/05/02 13:21:36;;;;;;;4.82;1.77;;;;;;;;;;4219207;33;20114;-70
2022/05/02 13:24:07;;;;;;;3.40;1.75;;;;;;;;;;4218278;34;20108;-71
2022/05/02 13:26:40;;;;;;;2.45;1.80;;;;;;;;;;4211626;34;20188;-70
2022/05/02 13:29:30;;;;;;;3.17;1.77;;;;;;;;;;4219448;33;20086;-70
2022/05/02 13:32:04;;;;;;;6.05;2.10;;;;;;;;;;4220651;33;20090;-71
2022/05/02 13:34:39;;;;;;;4.65;3.25;;;;;;;;;;4233706;33;20473;-72
2022/05/02 13:37:14;;;;;;;6.05;2.33;;;;;;;;;;4220477;33;20113;-71
2022/05/02 13:39:51;;;;;;;2.87;2.28;;;;;;;;;;4233690;33;20101;-71
2022/05/02 13:42:43;;;;;;;3.78;2.00;;;;;;;;;;4233149;33;20611;-69
2022/05/02 13:45:22;;;;;;;2.55;1.70;;;;;;;;;;4233379;33;20448;-71
2022/05/02 13:48:19;;;;;;;5.95;2.20;;;;;;;;;;4222005;33;20093;-71
2022/05/02 13:50:52;;;;;;;4.32;2.50;;;;;;;;;;4220292;33;20082;-71
2022/05/02 13:54:07;;;;;;;2.85;2.03;;;;;;;;;;4219170;33;20198;-72
2022/05/02 13:56:50;;;;;;;7.95;2.60;;;;;;;;;;4210705;33;20117;-75
2022/05/02 13:59:34;;;;;;;3.33;2.40;;;;;;;;;;4217719;34;20112;-68
2022/05/02 14:02:16;;;;;;;2.97;2.20;;;;;;;;;;4219827;33;20149;-66
2022/05/02 14:04:50;;;;;;;4.22;2.28;;;;;;;;;;4221231;33;20554;-68
2022/05/02 14:07:17;;;;;;;4.32;2.40;;;;;;;;;;4239553;33;20108;-67
2022/05/02 14:09:49;;;;;;;4.25;3.80;;;;;;;;;;4220151;33;20117;-65
2022/05/02 14:12:18;;;;;;;5.72;1.85;;;;;;;;;;4232891;33;20189;-67
2022/05/02 14:14:57;;;;;;;5.37;2.25;;;;;;;;;;4233362;33;20201;-68
2022/05/02 14:17:32;;;;;;;5.35;2.95;;;;;;;;;;4220152;33;20112;-68
2022/05/02 14:20:12;;;;;;;;;;;;;;;;;;4233635;33;20124;-72
2022/05/02 14:22:39;;;;;;;5.47;3.25;;;;;;;;;;4231980;33;19957;-74
2022/05/02 14:25:14;;;;;;;3.80;2.70;;;;;;;;;;4219381;33;20192;-72
2022/05/02 14:27:40;;;;;;;4.65;2.40;;;;;;;;;;4220247;33;20116;-72
2022/05/02 14:30:07;;;;;;;2.80;1.90;;;;;;;;;;4233030;33;20829;-71
2022/05/02 14:32:40;;;;;;;3.62;1.67;;;;;;;;;;4231782;33;20127;-72
2022/05/02 14:35:08;;;;;;;4.00;1.85;;;;;;;;;;4219571;33;20258;-71
2022/05/02 14:37:35;;;;;;;3.97;1.92;;;;;;;;;;4232815;33;20183;-73
2022/05/02 14:40:02;;;;;;;5.03;2.10;;;;;;;;;;4232882;33;20122;-69
2022/05/02 14:42:30;;;;;;;4.97;1.70;;;;;;;;;;4231748;33;20172;-73
2022/05/02 14:44:58;;;;;;;4.43;2.83;;;;;;;;;;4230219;33;20117;-70
2022/05/02 14:47:25;;;;;;;8.10;3.10;;;;;;;;;;4241787;33;20131;-76
2022/05/02 14:49:55;;;;;;;2.03;1.67;;;;;;;;;;4229682;33;20109;-79
2022/05/02 14:52:23;;;;;;;1.17;1.12;;;;;;;;;;4232434;33;20090;-76
2022/05/02 14:54:55;;;;;;;1.23;1.23;;;;;;;;;;4219656;33;20097;-73
2022/05/02 14:57:23;;;;;;;1.00;1.00;;;;;;;;;;4219286;33;20105;-75
2022/05/02 14:59:57;;;;;;;0.80;0.80;;;;;;;;;;4218411;33;20127;-75
2022/05/02 15:02:25;;;;;;;4.20;1.63;;;;;;;;;;4218582;33;20108;-77
2022/05/02 15:05:01;;;;;;;1.75;1.60;;;;;;;;;;4231924;33;20144;-76
2022/05/02 15:07:33;;;;;;;1.52;1.42;;;;;;;;;;4231343;33;20124;-75
2022/05/02 15:10:12;;;;;;;1.48;1.37;;;;;;;;;;4218556;33;20220;-73
2022/05/02 15:12:51;;;;;;;1.90;1.75;;;;;;;;;;4216999;33;20117;-72
2022/05/02 15:15:43;;;;;;;8.45;2.10;;;;;;;;;;4229802;33;20174;-74
2022/05/02 15:19:33;;;;;;;2.67;1.50;;;;;;;;;;4218341;33;20140;-76
2022/05/02 15:21:27;;;;;;;1.30;1.30;;;;;;;;;;4233372;33;20115;-73
2022/05/02 15:23:53;;;;;;;1.35;1.27;;;;;;;;;;4237056;33;20204;-75
2022/05/02 15:26:49;;;;;;;1.50;1.40;;;;;;;;;;4237941;33;20414;-76
2022/05/02 15:36:39;;;;;;;4.75;1.58;;;;;;;;;;4224960;33;20651;-73
2022/05/02 15:38:22;;;;;;;8.68;2.62;;;;;;;;;;4217526;33;20119;-72
2022/05/02 15:40:48;;;;;;;1.10;1.10;;;;;;;;;;4218126;34;20491;-74
2022/05/02 15:43:22;;;;;;;1.20;1.20;;;;;;;;;;4206203;33;20141;-79
2022/05/02 15:45:49;;;;;;;0.98;0.98;;;;;;;;;;4224814;33;20106;-74
2022/05/02 15:48:35;;;;;;;1.00;1.00;;;;;;;;;;4215616;33;20108;-72
2022/05/02 15:51:23;;;;;;;2.62;1.80;;;;;;;;;;4232153;33;20770;-70
2022/05/02 15:54:22;;;;;;;0.90;0.90;;;;;;;;;;4215297;33;20529;-73
2022/05/02 15:57:00;;;;;;;0.75;0.75;;;;;;;;;;4229851;33;20189;-69
2022/05/02 15:59:39;;;;;;;1.42;1.33;;;;;;;;;;4225584;33;20134;-70
2022/05/02 16:02:10;;;;;;;3.35;2.22;;;;;;;;;;4215854;33;20109;-68
2022/05/02 16:04:48;;;;;;;3.40;2.40;;;;;;;;;;4219032;33;20128;-67
2022/05/02 16:12:46;;;;;;;4.50;2.78;;;;;;;;;;4225985;33;20308;-70
2022/05/02 16:15:14;;;;;;;11.02;2.70;;;;;;;;;;4219869;33;20089;-68
2022/05/02 16:17:46;;;;;;;12.35;5.60;;;;;;;;;;4217094;33;20129;-74
2022/05/02 16:20:14;;;;;;;9.60;6.07;;;;;;;;;;4204922;34;20109;-74
2022/05/02 16:22:41;;;;;;;17.08;6.85;;;;;;;;;;4219232;33;20113;-73
2022/05/02 16:25:15;;;;;;;19.30;5.72;;;;;;;;;;4227949;33;20094;-69
2022/05/02 16:27:42;;;;;;;12.13;4.72;;;;;;;;;;4208479;34;20098;-67
2022/05/02 16:30:10;;;;;;;15.15;6.12;;;;;;;;;;4222117;33;20121;-64
2022/05/02 16:32:44;;;;;;;13.43;7.82;;;;;;;;;;4227440;33;20410;-66
2022/05/02 16:35:23;;;;;;;21.08;7.18;;;;;;;;;;4236801;33;20087;-66
2022/05/02 16:37:51;;;;;;;15.88;7.45;;;;;;;;;;4236994;33;20205;-68
2022/05/02 16:40:27;;;;;;;13.35;6.90;;;;;;;;;;4217800;33;20113;-68
2022/05/02 16:43:05;;;;;;;10.30;6.70;;;;;;;;;;4241133;33;20132;-67
2022/05/02 16:45:31;;;;;;;9.98;6.25;;;;;;;;;;4225120;33;20137;-70